Time;durP1;ratioP1;P1;durP2;ratioP2;P2;SDS_P1;SDS_P2;PMS_P1;PMS_P2;Temp;Humidity;BMP_temperature;BMP_pressure;BME280_temperature;BME280_humidity;BME280_pressure;Samples;Min_cycle;Max_cycle;Signal;HPM_P1;HPM_P2
2023/10/12 00:01:57;;;;;;;2.70;1.20;;;;;;;14.44;47.39;99781.63;4957761;28;20442;-82
2023/10/12 00:04:35;;;;;;;2.65;1.15;;;;;;;14.43;47.50;99788.66;4942621;28;20112;-82
2023/10/12 00:07:09;;;;;;;2.97;1.10;;;;;;;14.46;47.44;99791.03;4942373;28;20038;-82
2023/10/12 00:09:34;;;;;;;2.10;1.17;;;;;;;14.45;47.39;99789.41;4958110;28;20027;-82
2023/10/12 00:12:07;;;;;;;3.42;1.35;;;;;;;14.43;47.58;99782.56;4956510;28;20054;-81
2023/10/12 00:14:34;;;;;;;1.67;1.13;;;;;;;14.43;47.60;99787.81;4957817;28;20109;-81
2023/10/12 00:17:00;;;;;;;4.03;1.27;;;;;;;14.41;47.79;99774.81;4940565;28;20022;-82
2023/10/12 00:19:25;;;;;;;3.70;1.30;;;;;;;14.40;47.99;99770.50;4943742;28;20429;-82
2023/10/12 00:21:56;;;;;;;3.08;1.48;;;;;;;14.40;48.09;99770.50;4976563;28;20494;-81
2023/10/12 00:24:22;;;;;;;4.65;1.20;;;;;;;14.39;47.94;99766.22;4961481;28;20046;-81
2023/10/12 00:26:49;;;;;;;3.10;1.20;;;;;;;14.36;47.98;99763.81;4944330;28;20041;-80
2023/10/12 00:29:15;;;;;;;2.58;1.10;;;;;;;14.38;48.02;99759.28;4944537;28;20055;-80
2023/10/12 00:31:42;;;;;;;5.28;1.10;;;;;;;14.38;48.67;99761.91;4960148;28;20062;-82
2023/10/12 00:34:09;;;;;;;3.30;1.35;;;;;;;14.38;48.09;99761.91;4960930;28;20090;-82
2023/10/12 00:36:37;;;;;;;3.10;1.02;;;;;;;14.36;48.45;99761.19;4975960;28;20039;-82
2023/10/12 00:39:09;;;;;;;2.95;1.27;;;;;;;14.33;48.37;99757.94;4944252;28;20530;-83
2023/10/12 00:41:43;;;;;;;3.00;0.88;;;;;;;14.35;48.36;99762.13;4961247;28;20038;-81
2023/10/12 00:44:10;;;;;;;3.78;1.60;;;;;;;14.34;48.45;99754.38;4944628;28;20034;-80
2023/10/12 00:46:40;;;;;;;2.92;1.52;;;;;;;14.35;48.19;99748.16;4960606;28;20125;-80
2023/10/12 00:49:21;;;;;;;2.28;1.20;;;;;;;14.28;48.46;99737.31;4960137;28;20023;-81
2023/10/12 00:52:07;;;;;;;2.45;1.30;;;;;;;14.26;48.15;99731.31;4962796;28;20031;-81
2023/10/12 00:57:05;;;;;;;3.00;1.30;;;;;;;14.27;48.53;99733.00;4961246;28;20046;-82
2023/10/12 00:59:34;;;;;;;3.47;1.23;;;;;;;14.29;48.45;99738.97;4944428;28;20061;-82
2023/10/12 01:02:08;;;;;;;5.82;1.42;;;;;;;14.23;48.26;99735.03;4960260;28;20034;-82
2023/10/12 01:04:34;;;;;;;2.45;1.23;;;;;;;14.27;48.27;99733.00;4944354;28;20062;-82
2023/10/12 01:07:00;;;;;;;2.45;1.10;;;;;;;14.28;48.47;99726.78;4943734;28;20046;-83
2023/10/12 01:09:38;;;;;;;2.13;1.30;;;;;;;14.27;48.31;99728.56;4943167;28;20410;-82
2023/10/12 01:12:06;;;;;;;;;;;;;;;14.26;48.48;99729.53;4945536;28;20022;-82
2023/10/12 01:14:32;;;;;;;5.00;1.60;;;;;;;14.14;48.65;99712.09;4977113;28;19918;-81
2023/10/12 01:17:04;;;;;;;3.03;1.40;;;;;;;14.23;48.72;99721.88;4976004;28;20281;-82
2023/10/12 01:19:39;;;;;;;2.60;1.30;;;;;;;14.23;48.59;99726.28;4959529;28;20039;-82
2023/10/12 01:22:11;;;;;;;3.28;1.17;;;;;;;14.22;48.49;99728.09;4961600;28;20465;-81
2023/10/12 01:24:43;;;;;;;1.92;1.20;;;;;;;14.22;48.60;99728.09;4952117;28;20430;-83
2023/10/12 01:27:13;;;;;;;2.95;1.40;;;;;;;14.19;48.79;99717.00;4987263;28;20046;-82
2023/10/12 01:29:39;;;;;;;5.25;1.55;;;;;;;14.18;48.68;99718.75;4953705;28;20050;-83
2023/10/12 01:34:36;;;;;;;2.80;1.45;;;;;;;14.15;48.63;99726.03;4963245;28;20038;-81
2023/10/12 01:37:21;;;;;;;3.15;1.42;;;;;;;14.16;48.73;99720.66;4946335;28;20046;-81
2023/10/12 01:39:56;;;;;;;2.00;1.20;;;;;;;14.17;48.72;99724.13;4965492;28;20114;-80
2023/10/12 01:42:38;;;;;;;2.22;1.10;;;;;;;14.15;48.66;99726.03;4963273;28;20038;-81
2023/10/12 01:45:05;;;;;;;3.10;1.50;;;;;;;14.10;48.73;99711.47;4964596;28;20508;-80
2023/10/12 01:47:36;;;;;;;2.92;1.40;;;;;;;14.14;48.80;99721.72;4962219;28;20066;-80
2023/10/12 01:50:03;;;;;;;2.80;1.10;;;;;;;14.13;48.95;99720.91;4962497;28;20046;-81
2023/10/12 01:52:29;;;;;;;3.67;1.50;;;;;;;14.13;48.76;99720.91;4961679;28;20030;-81
2023/10/12 01:54:54;;;;;;;2.97;1.40;;;;;;;14.06;48.75;99707.41;4962026;28;20030;-83
2023/10/12 01:57:30;;;;;;;4.93;1.38;;;;;;;14.07;48.94;99716.97;4945801;28;20034;-84
2023/10/12 01:59:56;;;;;;;5.32;1.98;;;;;;;14.10;48.86;99722.00;4948772;28;20041;-83
2023/10/12 02:02:21;;;;;;;3.15;1.25;;;;;;;14.08;48.83;99721.25;4946146;28;20145;-83
2023/10/12 02:04:47;;;;;;;7.82;1.70;;;;;;;14.09;48.77;99720.31;4962005;28;20030;-83
2023/10/12 02:07:13;;;;;;;2.70;1.35;;;;;;;14.06;48.93;99720.53;4961905;28;20423;-83
2023/10/12 02:09:39;;;;;;;3.25;1.50;;;;;;;14.06;48.96;99725.78;4961983;28;20031;-84
2023/10/12 02:12:13;;;;;;;7.20;1.40;;;;;;;14.04;48.79;99721.59;4946277;28;20092;-83
2023/10/12 02:14:41;;;;;;;2.97;1.38;;;;;;;13.97;49.00;99708.09;4979336;28;20022;-81
2023/10/12 02:17:10;;;;;;;2.78;1.52;;;;;;;14.00;49.00;99718.38;4962515;28;20030;-82
2023/10/12 02:19:41;;;;;;;;;;;;;;;14.00;49.02;99720.16;4995384;28;20081;-80
2023/10/12 02:22:18;;;;;;;3.00;1.30;;;;;;;13.94;49.20;99716.19;4978098;28;20373;-82
2023/10/12 02:24:44;;;;;;;4.57;1.55;;;;;;;13.92;49.05;99710.22;4979324;28;20030;-81
2023/10/12 02:27:13;;;;;;;5.40;2.05;;;;;;;13.90;49.22;99715.59;4994643;28;20030;-81
2023/10/12 02:29:39;;;;;;;4.53;1.30;;;;;;;13.88;49.18;99716.66;4946062;28;20078;-82
2023/10/12 02:35:11;;;;;;;3.45;1.52;;;;;;;13.85;48.95;99717.72;4904143;29;20052;-82
2023/10/12 02:37:36;;;;;;;5.13;1.60;;;;;;;13.81;48.85;99704.94;4900928;29;20103;-81
2023/10/12 02:40:04;;;;;;;3.17;1.55;;;;;;;13.84;49.06;99716.03;4884200;29;20052;-81
2023/10/12 02:42:38;;;;;;;4.57;1.63;;;;;;;13.79;49.16;99702.44;4899061;29;20130;-81
2023/10/12 02:47:42;;;;;;;3.28;1.20;;;;;;;13.77;49.21;99699.06;4900975;29;20028;-81
2023/10/12 02:52:38;;;;;;;2.60;1.42;;;;;;;13.77;48.88;99708.75;4899822;29;20643;-81
2023/10/12 02:58:35;;;;;;;3.42;1.30;;;;;;;13.73;49.00;99698.47;4901963;29;20048;-80
2023/10/12 03:05:47;;;;;;;3.90;1.20;;;;;;;13.69;49.17;99697.00;4915417;29;20036;-82
2023/10/12 03:08:17;;;;;;;3.00;1.08;;;;;;;13.66;49.33;99689.41;4898903;29;20295;-83
2023/10/12 03:11:08;;;;;;;2.58;1.35;;;;;;;13.65;49.35;99692.13;4926801;28;20049;-82
2023/10/12 03:13:37;;;;;;;2.90;1.60;;;;;;;13.65;49.49;99698.22;4963420;28;20026;-82
2023/10/12 03:16:20;;;;;;;2.20;1.17;;;;;;;13.63;49.17;99694.00;4960315;28;20026;-82
2023/10/12 03:18:46;;;;;;;2.15;1.23;;;;;;;13.62;49.19;99700.22;4948465;28;20125;-83
2023/10/12 03:21:12;;;;;;;2.58;1.30;;;;;;;13.57;49.28;99692.69;4943583;28;20425;-81
2023/10/12 03:23:46;;;;;;;2.70;1.30;;;;;;;13.60;49.64;99694.22;4944367;28;20034;-80
2023/10/12 03:26:24;;;;;;;2.58;1.27;;;;;;;13.54;49.55;99688.50;4960926;28;20034;-80
2023/10/12 03:28:50;;;;;;;3.15;1.52;;;;;;;13.58;49.72;99694.34;4963669;28;20107;-82
2023/10/12 03:31:33;;;;;;;3.13;1.30;;;;;;;13.57;49.61;99692.69;4959767;28;20472;-81
2023/10/12 03:33:59;;;;;;;2.67;1.40;;;;;;;13.51;49.65;99680.84;4948580;28;20030;-82
2023/10/12 03:36:31;;;;;;;3.70;1.20;;;;;;;13.49;49.73;99684.53;4960199;28;20038;-78
2023/10/12 03:41:55;;;;;;;2.63;1.20;;;;;;;13.48;49.66;99686.31;4978459;28;20045;-80
2023/10/12 03:47:15;;;;;;;2.67;1.60;;;;;;;13.48;49.83;99693.38;4965504;28;20088;-82
2023/10/12 03:52:27;;;;;;;2.78;1.40;;;;;;;13.47;50.06;99697.78;4963186;28;20031;-85
2023/10/12 03:55:09;;;;;;;3.13;1.30;;;;;;;13.44;49.96;99697.16;4946183;28;20038;-84
2023/10/12 04:11:19;;;;;;;3.05;1.15;;;;;;;13.39;50.08;99689.59;4964341;28;20129;-79
2023/10/12 04:18:42;;;;;;;4.20;1.40;;;;;;;13.39;50.59;99687.00;4962020;28;20034;-80
2023/10/12 04:21:10;;;;;;;3.25;1.60;;;;;;;13.38;50.38;99687.97;4943006;28;20054;-79
2023/10/12 04:23:46;;;;;;;2.08;1.38;;;;;;;13.38;50.43;99683.53;4941418;28;20042;-81
2023/10/12 04:28:56;;;;;;;4.80;1.27;;;;;;;13.42;50.59;99686.75;4958243;28;20034;-80
2023/10/12 04:34:17;;;;;;;3.50;1.50;;;;;;;13.71;49.71;99683.78;4898889;29;20040;-79
2023/10/12 04:39:27;;;;;;;10.48;2.05;;;;;;;14.33;48.06;99695.75;4882835;29;20043;-81
2023/10/12 04:42:00;;;;;;;15.75;3.65;;;;;;;14.72;47.61;99695.44;4887026;29;20055;-81
2023/10/12 04:47:07;;;;;;;4.05;1.42;;;;;;;15.48;45.91;99683.22;4883607;29;20040;-81
2023/10/12 04:57:26;;;;;;;7.55;1.70;;;;;;;17.44;41.85;99678.88;4914031;29;20047;-79
2023/10/12 05:09:49;;;;;;;5.72;1.55;;;;;;;19.85;37.24;99687.00;4901077;29;20043;-80
2023/10/12 05:12:16;;;;;;;6.93;1.90;;;;;;;20.30;36.20;99681.66;4944799;28;20062;-80
2023/10/12 05:14:41;;;;;;;7.65;2.17;;;;;;;20.74;35.54;99684.22;4962655;28;20031;-79
2023/10/12 05:17:10;;;;;;;6.70;2.55;;;;;;;21.19;34.61;99690.16;4962449;28;20038;-79
2023/10/12 05:19:35;;;;;;;5.43;2.30;;;;;;;21.59;34.15;99684.13;4963751;28;20058;-80
2023/10/12 05:22:01;;;;;;;7.30;2.50;;;;;;;22.03;33.37;99686.44;4962130;28;20119;-79
2023/10/12 05:24:27;;;;;;;7.95;2.40;;;;;;;22.43;32.75;99683.91;4946562;28;20494;-80
2023/10/12 05:27:08;;;;;;;5.55;2.08;;;;;;;22.82;32.00;99685.75;4962404;28;20084;-80
2023/10/12 05:29:38;;;;;;;9.05;2.22;;;;;;;23.21;31.10;99689.41;4950632;28;20078;-78
2023/10/12 05:32:18;;;;;;;11.63;2.22;;;;;;;23.56;30.63;99689.81;4948054;28;20095;-80
2023/10/12 05:37:38;;;;;;;6.78;2.00;;;;;;;24.50;29.20;99695.66;4962208;28;20038;-78
2023/10/12 05:39:55;;;;;;;6.30;2.03;;;;;;;24.93;28.34;99692.31;4967577;28;20112;-79
2023/10/12 05:42:24;;;;;;;7.22;2.20;;;;;;;25.22;27.81;99698.59;4946095;28;20030;-79
2023/10/12 05:44:50;;;;;;;8.65;2.75;;;;;;;25.53;27.62;99700.19;4962395;28;20544;-80
2023/10/12 05:47:43;;;;;;;9.32;2.92;;;;;;;25.81;26.86;99697.56;4945128;28;20060;-80
2023/10/12 05:50:03;;;;;;;12.43;2.97;;;;;;;26.18;26.29;99701.78;4967686;28;20109;-78
2023/10/12 05:52:28;;;;;;;10.10;3.25;;;;;;;26.55;26.30;99701.59;4945897;28;20410;-81
2023/10/12 05:54:58;;;;;;;12.00;3.05;;;;;;;26.89;25.43;99705.28;4946151;28;20041;-80
2023/10/12 05:57:25;;;;;;;7.82;2.50;;;;;;;27.20;24.84;99712.81;4962793;28;20033;-80
2023/10/12 05:59:51;;;;;;;5.20;3.05;;;;;;;27.52;24.36;99702.41;4961993;28;20034;-80
2023/10/12 06:02:22;;;;;;;15.10;5.10;;;;;;;27.86;23.95;99716.66;4945870;28;20159;-79
2023/10/12 06:04:48;;;;;;;11.75;4.10;;;;;;;28.17;23.67;99711.72;4947236;28;20074;-80
2023/10/12 06:07:14;;;;;;;19.15;7.95;;;;;;;28.45;23.23;99708.75;4961277;28;20105;-79
2023/10/12 06:09:40;;;;;;;26.40;8.15;;;;;;;28.78;22.65;99715.94;4945416;28;20033;-79
2023/10/12 06:12:06;;;;;;;16.85;6.75;;;;;;;28.96;22.35;99699.94;4962040;28;20109;-79
2023/10/12 06:14:37;;;;;;;10.90;5.40;;;;;;;29.31;21.86;99707.66;4946084;28;20037;-78
2023/10/12 06:17:05;;;;;;;12.70;7.18;;;;;;;29.61;21.70;99709.72;4944439;28;20034;-79
2023/10/12 06:19:36;;;;;;;17.95;8.57;;;;;;;29.82;21.39;99713.13;4961520;28;20520;-79
2023/10/12 06:22:20;;;;;;;22.98;9.52;;;;;;;30.02;21.43;99712.97;4946701;28;20493;-81
2023/10/12 06:24:49;;;;;;;12.80;6.75;;;;;;;30.25;21.01;99712.31;4965811;28;20026;-79
2023/10/12 06:29:53;;;;;;;8.02;4.78;;;;;;;30.67;20.44;99710.63;4963256;28;20031;-80
2023/10/12 06:32:19;;;;;;;8.63;4.60;;;;;;;30.85;20.50;99717.91;4961588;28;20121;-78
2023/10/12 06:45:49;;;;;;;7.20;2.58;;;;;;;32.78;18.13;99712.38;4979812;28;20038;-79
2023/10/12 06:48:58;;;;;;;5.85;2.60;;;;;;;33.52;17.34;99709.72;4961593;28;20485;-79
2023/10/12 06:51:11;;;;;;;7.65;3.00;;;;;;;34.29;16.72;99703.91;4959453;28;20402;-80
2023/10/12 06:53:37;;;;;;;6.70;2.88;;;;;;;34.86;16.26;99702.75;4961322;28;20126;-78
2023/10/12 07:04:14;;;;;;;16.98;5.85;;;;;;;36.63;14.50;99702.81;4883956;29;20047;-79
2023/10/12 07:06:56;;;;;;;15.80;5.30;;;;;;;36.73;14.62;99691.19;4884873;29;20068;-79
2023/10/12 07:09:28;;;;;;;21.40;5.43;;;;;;;36.74;14.51;99699.06;4899282;29;20040;-78
2023/10/12 07:11:54;;;;;;;26.73;5.32;;;;;;;36.99;14.20;99702.13;4885668;29;20099;-78
2023/10/12 07:14:30;;;;;;;20.33;5.15;;;;;;;37.11;14.15;99691.81;4883581;29;20524;-81
2023/10/12 07:16:57;;;;;;;14.50;4.03;;;;;;;37.16;13.94;99691.81;4899381;29;20183;-79
2023/10/12 07:19:24;;;;;;;13.82;3.92;;;;;;;37.11;14.20;99699.97;4883590;29;20499;-79
2023/10/12 07:21:55;;;;;;;12.75;4.55;;;;;;;37.00;14.51;99695.59;4883949;29;20062;-78
2023/10/12 07:24:23;;;;;;;17.83;4.05;;;;;;;36.79;14.80;99701.00;4884916;29;20645;-78
2023/10/12 07:26:49;;;;;;;10.10;3.60;;;;;;;36.65;14.50;99697.91;4883950;29;20032;-79
2023/10/12 07:29:35;;;;;;;;;;;;;;;36.20;14.82;99694.69;4915199;29;20036;-79
2023/10/12 07:32:31;;;;;;;18.63;3.15;;;;;;;36.21;14.84;99701.78;4898974;29;19915;-80
2023/10/12 07:34:57;;;;;;;9.30;2.65;;;;;;;36.19;14.66;99698.50;4921888;28;20046;-78
2023/10/12 07:37:23;;;;;;;10.48;3.03;;;;;;;36.13;14.75;99704.16;4961838;28;20073;-78
2023/10/12 07:39:54;;;;;;;6.70;2.33;;;;;;;36.05;15.03;99698.13;4960991;28;20034;-80
2023/10/12 07:42:26;;;;;;;7.22;2.20;;;;;;;36.18;15.17;99701.47;4946186;28;20580;-80
2023/10/12 07:44:59;;;;;;;10.10;2.10;;;;;;;36.34;15.03;99700.53;4946136;28;20038;-80
2023/10/12 07:47:46;;;;;;;11.32;1.67;;;;;;;36.45;14.58;99684.25;4946939;28;20129;-78
2023/10/12 07:50:13;;;;;;;7.38;1.50;;;;;;;36.28;14.89;99689.88;4950003;28;20068;-78
2023/10/12 07:52:40;;;;;;;3.90;1.70;;;;;;;36.30;15.08;99687.72;4961237;28;20060;-78
2023/10/12 07:55:17;;;;;;;5.18;1.65;;;;;;;36.16;15.01;99693.59;4960728;28;20034;-80
2023/10/12 07:57:42;;;;;;;9.93;1.92;;;;;;;36.06;14.92;99688.09;4946941;28;20076;-79
2023/10/12 08:10:48;;;;;;;6.63;2.08;;;;;;;35.66;15.28;99684.81;4961184;28;20050;-79
2023/10/12 08:23:46;;;;;;;5.25;2.00;;;;;;;35.96;15.13;99678.00;4962310;28;20410;-79
2023/10/12 08:26:47;;;;;;;6.85;2.10;;;;;;;36.03;14.99;99675.03;4945544;28;20061;-79
2023/10/12 08:30:11;;;;;;;8.98;2.10;;;;;;;36.05;14.96;99678.31;4978552;28;20039;-79
2023/10/12 08:39:37;;;;;;;9.95;1.90;;;;;;;35.72;15.00;99668.56;4962128;28;20042;-78
2023/10/12 08:45:00;;;;;;;4.57;1.48;;;;;;;35.72;15.13;99665.84;4982326;28;20038;-78
2023/10/12 08:47:44;;;;;;;4.88;2.00;;;;;;;35.70;15.26;99660.66;4964043;28;20072;-81
2023/10/12 08:52:50;;;;;;;11.63;1.77;;;;;;;35.62;15.44;99656.53;4967367;28;20039;-79
2023/10/12 08:55:19;;;;;;;7.93;1.45;;;;;;;35.67;15.39;99653.03;4965903;28;20430;-80
2023/10/12 08:57:56;;;;;;;5.68;1.35;;;;;;;35.70;15.15;99649.81;4965247;28;20030;-80
2023/10/12 09:05:42;;;;;;;4.03;1.20;;;;;;;35.65;15.07;99641.63;4966302;28;20074;-83
2023/10/12 09:08:39;;;;;;;6.45;1.40;;;;;;;35.62;15.20;99642.97;4963512;28;20057;-79
2023/10/12 09:11:13;;;;;;;3.35;1.40;;;;;;;35.46;15.18;99633.06;4968301;28;20117;-83
2023/10/12 09:13:45;;;;;;;5.43;1.80;;;;;;;35.40;14.49;99639.53;4952097;28;20037;-79
2023/10/12 09:16:11;;;;;;;6.90;1.65;;;;;;;35.25;15.32;99624.78;4963545;28;20038;-79
2023/10/12 09:18:44;;;;;;;9.35;1.48;;;;;;;35.12;15.19;99627.88;4946670;28;20097;-79
2023/10/12 09:23:50;;;;;;;3.08;1.30;;;;;;;34.82;15.45;99615.66;4979812;28;20031;-78
2023/10/12 09:26:37;;;;;;;6.05;1.70;;;;;;;34.65;15.71;99621.16;4964838;28;20085;-79
2023/10/12 09:36:44;;;;;;;10.93;1.55;;;;;;;33.81;15.96;99597.84;4965105;28;20042;-83
2023/10/12 09:39:15;;;;;;;9.02;1.90;;;;;;;33.64;16.34;99585.13;4946954;28;20039;-81
2023/10/12 09:42:09;;;;;;;5.72;1.90;;;;;;;33.74;16.04;99589.91;4946617;28;20035;-80
2023/10/12 09:44:39;;;;;;;5.97;2.00;;;;;;;33.98;16.30;99589.69;4966512;28;20500;-80
2023/10/12 09:47:15;;;;;;;5.88;1.60;;;;;;;34.06;16.27;99573.84;4947560;28;20062;-80
2023/10/12 09:49:47;;;;;;;5.10;1.60;;;;;;;33.99;16.23;99581.31;4948723;28;20019;-80
2023/10/12 09:52:13;;;;;;;7.72;1.75;;;;;;;34.01;16.21;99571.03;4946878;28;20034;-79
2023/10/12 09:54:46;;;;;;;5.70;1.50;;;;;;;34.01;16.40;99567.53;4946355;28;20031;-79
2023/10/12 09:57:27;;;;;;;5.88;1.70;;;;;;;33.94;16.50;99561.44;4978301;28;20093;-81
2023/10/12 09:59:54;;;;;;;9.23;1.50;;;;;;;33.65;16.57;99558.88;4966041;28;20062;-79
2023/10/12 10:02:28;;;;;;;9.82;1.63;;;;;;;33.63;16.52;99552.91;4946098;28;20034;-81
2023/10/12 10:05:06;;;;;;;11.05;1.88;;;;;;;33.36;16.29;99551.69;4947413;28;20034;-79
2023/10/12 10:07:36;;;;;;;6.30;1.52;;;;;;;33.39;16.61;99544.19;4949057;28;20026;-83
2023/10/12 10:10:05;;;;;;;3.88;1.45;;;;;;;33.25;16.66;99538.28;4963081;28;20490;-84
2023/10/12 10:12:36;;;;;;;6.22;1.40;;;;;;;33.16;16.50;99532.41;4947107;28;20041;-83
2023/10/12 10:15:10;;;;;;;9.88;1.45;;;;;;;33.18;16.96;99525.72;4947209;28;20040;-79
2023/10/12 10:17:36;;;;;;;6.47;1.70;;;;;;;33.17;16.88;99525.94;4962610;28;20026;-78
2023/10/12 10:23:13;;;;;;;5.63;1.55;;;;;;;32.89;17.28;99518.72;4928300;29;20075;-79
2023/10/12 10:25:45;;;;;;;5.47;1.55;;;;;;;32.69;17.46;99511.94;4904711;29;20039;-78
2023/10/12 10:28:24;;;;;;;6.50;1.70;;;;;;;32.62;17.58;99508.50;4918925;29;20039;-81
2023/10/12 10:30:52;;;;;;;13.05;1.95;;;;;;;32.46;17.46;99510.94;4920212;29;20035;-79
2023/10/12 10:33:24;;;;;;;8.00;2.30;;;;;;;32.22;17.77;99491.31;4919593;29;20127;-79
2023/10/12 10:44:21;;;;;;;8.48;1.90;;;;;;;31.55;18.57;99491.81;4921895;29;20035;-78
2023/10/12 10:46:48;;;;;;;8.07;1.70;;;;;;;31.41;19.03;99477.72;4906920;29;20506;-80
2023/10/12 10:49:17;;;;;;;6.03;1.80;;;;;;;31.35;19.02;99474.09;4903158;29;20115;-79
2023/10/12 10:51:47;;;;;;;4.40;2.08;;;;;;;31.21;18.78;99467.28;4919473;29;20518;-81
2023/10/12 10:54:18;;;;;;;7.05;1.73;;;;;;;31.11;19.38;99465.19;4939605;28;20058;-82
2023/10/12 10:56:47;;;;;;;6.32;1.60;;;;;;;30.40;19.37;99467.72;4962341;28;20029;-80
2023/10/12 10:59:13;;;;;;;5.15;1.40;;;;;;;30.16;19.92;99460.56;4962281;28;20030;-80
2023/10/12 11:01:46;;;;;;;4.47;1.48;;;;;;;30.09;20.53;99463.34;4960859;28;20032;-79
2023/10/12 11:04:59;;;;;;;6.82;1.30;;;;;;;29.89;20.65;99448.28;4946940;28;20078;-79
2023/10/12 11:07:03;;;;;;;4.97;1.50;;;;;;;29.87;20.87;99450.41;4956205;28;20415;-82
2023/10/12 11:09:31;;;;;;;9.23;1.65;;;;;;;29.75;20.82;99455.66;4962011;28;20026;-79
2023/10/12 11:12:00;;;;;;;9.05;2.13;;;;;;;29.67;21.00;99447.91;4945171;28;20510;-82
2023/10/12 11:14:26;;;;;;;10.52;1.45;;;;;;;29.65;20.78;99447.31;4944773;28;20031;-77
2023/10/12 11:16:54;;;;;;;5.95;1.60;;;;;;;29.54;20.69;99430.06;4944967;28;20041;-79
2023/10/12 11:19:23;;;;;;;7.00;1.48;;;;;;;29.40;21.18;99439.31;4961716;28;20022;-78
2023/10/12 11:21:51;;;;;;;4.80;1.52;;;;;;;29.29;21.39;99427.41;4941885;28;20050;-79
2023/10/12 11:24:18;;;;;;;3.15;1.48;;;;;;;29.14;23.27;99432.28;4941981;28;20031;-77
2023/10/12 11:26:54;;;;;;;4.23;1.30;;;;;;;28.93;23.92;99414.72;4941900;28;20045;-79
2023/10/12 11:29:20;;;;;;;4.03;1.50;;;;;;;28.86;24.27;99417.44;4940863;28;20043;-81
2023/10/12 11:32:11;;;;;;;2.85;1.20;;;;;;;28.45;24.35;99413.41;4957084;28;20033;-79
2023/10/12 11:34:46;;;;;;;8.05;1.63;;;;;;;28.23;24.54;99408.38;4926722;28;20062;-78
2023/10/12 11:37:13;;;;;;;7.30;1.33;;;;;;;28.00;25.10;99403.56;4957120;28;20035;-77
2023/10/12 11:39:43;;;;;;;3.20;1.30;;;;;;;27.78;24.57;99403.00;4941459;28;20105;-78
2023/10/12 11:42:12;;;;;;;5.10;1.63;;;;;;;27.58;25.27;99403.13;4925117;28;20030;-77
2023/10/12 11:44:42;;;;;;;7.15;1.60;;;;;;;27.38;25.36;99406.66;4941052;28;20041;-79
2023/10/12 11:47:08;;;;;;;7.43;1.50;;;;;;;27.17;26.10;99402.34;4943086;28;20077;-83
2023/10/12 11:49:50;;;;;;;5.32;1.45;;;;;;;27.03;25.89;99404.22;4925828;28;20026;-80
2023/10/12 11:52:29;;;;;;;4.32;1.52;;;;;;;26.97;25.85;99398.88;4943739;28;20027;-85
2023/10/12 11:55:18;;;;;;;7.30;1.42;;;;;;;26.90;25.43;99394.34;4948813;28;20130;-84
2023/10/12 11:57:59;;;;;;;2.33;1.30;;;;;;;26.73;25.54;99385.09;4929504;28;20023;-83
2023/10/12 12:00:29;;;;;;;6.28;1.40;;;;;;;26.58;25.41;99384.44;4949115;28;20038;-86
2023/10/12 12:02:59;;;;;;;5.00;1.80;;;;;;;26.52;25.48;99386.09;4956744;28;20023;-83
2023/10/12 12:05:33;;;;;;;4.90;1.40;;;;;;;26.41;25.50;99386.69;4937814;28;20039;-82
2023/10/12 12:08:15;;;;;;;4.28;1.75;;;;;;;26.20;25.45;99369.78;4952560;28;20518;-84
2023/10/12 12:13:16;;;;;;;8.52;1.75;;;;;;;26.15;25.58;99383.75;4956285;28;20023;-79
2023/10/12 12:15:45;;;;;;;8.02;1.58;;;;;;;26.06;25.80;99378.81;4963180;28;20027;-80
2023/10/12 12:18:17;;;;;;;8.43;1.77;;;;;;;25.92;25.28;99368.06;4943435;28;20031;-80
2023/10/12 12:20:44;;;;;;;6.45;1.60;;;;;;;25.72;25.33;99353.81;4950223;28;20058;-80
2023/10/12 12:23:13;;;;;;;5.07;1.30;;;;;;;25.70;25.81;99358.53;4963728;28;20058;-77
2023/10/12 12:25:39;;;;;;;7.63;1.40;;;;;;;25.59;25.70;99360.75;4973816;28;20125;-78
2023/10/12 12:28:14;;;;;;;3.95;1.23;;;;;;;25.58;25.79;99353.75;4962097;28;20038;-80
2023/10/12 12:30:46;;;;;;;4.55;1.40;;;;;;;25.53;25.81;99350.03;4964107;28;20043;-79
2023/10/12 12:33:15;;;;;;;3.53;1.50;;;;;;;25.46;25.92;99334.78;4963238;28;20054;-83
2023/10/12 12:35:45;;;;;;;7.72;1.52;;;;;;;25.45;25.69;99332.31;4958009;28;20031;-83
2023/10/12 12:38:44;;;;;;;4.38;1.50;;;;;;;25.38;25.90;99328.78;4941565;28;20027;-79
2023/10/12 12:40:57;;;;;;;6.65;1.52;;;;;;;25.36;26.10;99347.69;4958867;28;20046;-83
2023/10/12 12:43:22;;;;;;;8.48;1.70;;;;;;;25.35;26.17;99330.03;4959114;28;20129;-88
2023/10/12 12:45:48;;;;;;;6.03;1.73;;;;;;;25.33;25.94;99326.69;4949462;28;20034;-90
2023/10/12 12:48:14;;;;;;;3.78;1.60;;;;;;;25.20;26.05;99323.94;4944046;28;20129;-88
2023/10/12 12:50:43;;;;;;;7.30;1.65;;;;;;;24.97;26.62;99333.06;4947851;28;20100;-89
2023/10/12 12:53:11;;;;;;;11.18;1.70;;;;;;;24.98;26.81;99329.38;4940063;28;20045;-90
2023/10/12 12:55:38;;;;;;;4.43;1.52;;;;;;;25.01;26.53;99322.81;4949138;28;20505;-89
2023/10/12 12:58:14;;;;;;;7.57;1.50;;;;;;;25.01;26.56;99309.47;4945236;28;20075;-88
2023/10/12 13:00:42;;;;;;;5.70;1.75;;;;;;;24.97;26.56;99297.50;4949228;28;20062;-89
2023/10/12 13:03:11;;;;;;;3.90;1.48;;;;;;;25.00;26.66;99299.78;4962342;28;20038;-90
2023/10/12 13:05:37;;;;;;;7.40;1.50;;;;;;;24.96;26.44;99299.38;4946147;28;20125;-88
2023/10/12 13:08:07;;;;;;;4.00;1.58;;;;;;;24.99;26.56;99315.00;4948608;28;20039;-89
2023/10/12 13:10:42;;;;;;;5.30;1.50;;;;;;;24.98;26.67;99302.66;4965632;28;20031;-90
2023/10/12 13:13:09;;;;;;;5.25;1.60;;;;;;;24.89;26.44;99301.16;4958877;28;20039;-89
2023/10/12 13:15:48;;;;;;;3.30;1.42;;;;;;;24.95;26.46;99307.56;4950638;28;20042;-87
2023/10/12 13:18:16;;;;;;;2.58;1.35;;;;;;;24.89;26.67;99303.84;4944164;28;20031;-87
2023/10/12 13:20:46;;;;;;;7.63;1.60;;;;;;;24.86;26.72;99301.56;4969278;28;20030;-90
2023/10/12 13:23:20;;;;;;;6.90;1.50;;;;;;;24.92;26.69;99298.09;4971294;28;20367;-89
2023/10/12 13:25:45;;;;;;;8.32;1.75;;;;;;;24.85;26.73;99297.25;4968745;28;20053;-88
2023/10/12 13:28:12;;;;;;;5.30;1.45;;;;;;;24.83;26.74;99300.13;4956089;28;20022;-91
2023/10/12 13:30:39;;;;;;;5.28;1.77;;;;;;;24.81;26.81;99296.00;4989122;28;20047;-88
2023/10/12 13:33:09;;;;;;;7.43;1.85;;;;;;;24.76;27.00;99299.25;4972766;28;20030;-88
2023/10/12 13:35:41;;;;;;;5.00;1.83;;;;;;;24.68;26.87;99284.19;4958060;28;20046;-90
2023/10/12 13:38:10;;;;;;;6.40;1.58;;;;;;;24.68;26.94;99281.53;4968571;28;20041;-90
2023/10/12 13:40:39;;;;;;;4.82;1.80;;;;;;;24.70;26.59;99279.50;4970111;28;20031;-89
2023/10/12 13:43:15;;;;;;;8.50;1.83;;;;;;;24.66;26.70;99272.91;4968922;28;20046;-80
2023/10/12 13:45:49;;;;;;;4.30;1.70;;;;;;;24.61;26.79;99270.00;4978247;28;20049;-73
2023/10/12 13:48:29;;;;;;;4.38;1.80;;;;;;;24.59;27.01;99263.19;4964713;28;20387;-75
2023/10/12 13:53:42;;;;;;;6.68;2.10;;;;;;;24.55;26.96;99266.22;4967576;28;20065;-74
2023/10/12 13:56:08;;;;;;;7.90;1.85;;;;;;;24.55;27.05;99260.06;4945970;28;20073;-75
2023/10/12 13:58:35;;;;;;;6.47;1.90;;;;;;;24.55;26.97;99254.72;4977973;28;20034;-76
2023/10/12 14:01:03;;;;;;;7.70;1.50;;;;;;;24.55;27.03;99257.41;4961962;28;20038;-81
2023/10/12 14:03:29;;;;;;;5.45;1.60;;;;;;;24.50;26.98;99255.31;4961946;28;20026;-76
2023/10/12 14:05:58;;;;;;;10.93;1.70;;;;;;;24.41;27.25;99245.81;4961822;28;20407;-79
2023/10/12 14:08:24;;;;;;;8.07;1.80;;;;;;;24.41;27.06;99247.66;4961340;28;20030;-76
2023/10/12 14:10:51;;;;;;;12.45;1.95;;;;;;;24.37;27.46;99253.38;4946190;28;20498;-76
2023/10/12 14:13:17;;;;;;;5.70;1.95;;;;;;;24.36;27.23;99250.91;4962482;28;20030;-76
2023/10/12 14:15:46;;;;;;;6.72;1.98;;;;;;;24.32;27.36;99247.81;4944947;28;20494;-77
2023/10/12 14:18:16;;;;;;;5.60;1.80;;;;;;;24.26;27.37;99251.25;4961732;28;20057;-79
2023/10/12 14:20:42;;;;;;;7.68;1.83;;;;;;;24.24;27.53;99250.59;4961731;28;20030;-77
2023/10/12 14:23:08;;;;;;;12.07;1.67;;;;;;;24.17;27.58;99239.06;4995132;28;20133;-77
2023/10/12 14:25:35;;;;;;;3.75;1.55;;;;;;;24.16;27.60;99237.41;4945212;28;20536;-77
2023/10/12 14:28:01;;;;;;;8.05;1.80;;;;;;;24.12;27.69;99236.16;4961344;28;20042;-76
2023/10/12 14:30:30;;;;;;;3.40;1.73;;;;;;;24.10;27.77;99240.84;4945229;28;20031;-76
2023/10/12 14:32:56;;;;;;;10.23;2.05;;;;;;;24.05;27.92;99236.09;4945807;28;20034;-77
2023/10/12 14:35:25;;;;;;;12.05;2.10;;;;;;;24.01;27.78;99243.66;4945071;28;20126;-76
2023/10/12 14:37:54;;;;;;;8.13;1.90;;;;;;;23.96;27.90;99239.94;4961367;28;20089;-76
2023/10/12 14:40:20;;;;;;;11.57;2.20;;;;;;;23.91;28.03;99232.50;4962176;28;20335;-76